sensor_id;sensor_type;location;lat;lon;timestamp;temperature;humidity
12130;DHT22;6128;59.340;18.040;2023-06-22T00:01:13;20.10;99.90
12130;DHT22;6128;59.340;18.040;2023-06-22T00:03:41;20.10;99.90
12130;DHT22;6128;59.340;18.040;2023-06-22T00:06:08;20.10;99.90
12130;DHT22;6128;59.340;18.040;2023-06-22T00:08:36;20.10;99.90
12130;DHT22;6128;59.340;18.040;2023-06-22T00:11:03;20.10;99.90
12130;DHT22;6128;59.340;18.040;2023-06-22T00:13:30;20.10;99.90
12130;DHT22;6128;59.340;18.040;2023-06-22T00:16:00;20.10;99.90
12130;DHT22;6128;59.340;18.040;2023-06-22T00:18:27;20.10;99.90
12130;DHT22;6128;59.340;18.040;2023-06-22T00:20:57;20.10;99.90
12130;DHT22;6128;59.340;18.040;2023-06-22T00:23:25;20.00;99.90
12130;DHT22;6128;59.340;18.040;2023-06-22T00:25:52;20.10;99.90
12130;DHT22;6128;59.340;18.040;2023-06-22T00:28:19;20.10;99.90
12130;DHT22;6128;59.340;18.040;2023-06-22T00:30:48;20.10;99.90
12130;DHT22;6128;59.340;18.040;2023-06-22T00:33:15;20.10;99.90
12130;DHT22;6128;59.340;18.040;2023-06-22T00:35:42;20.10;99.90
12130;DHT22;6128;59.340;18.040;2023-06-22T00:38:11;20.10;99.90
12130;DHT22;6128;59.340;18.040;2023-06-22T00:40:38;20.10;99.90
12130;DHT22;6128;59.340;18.040;2023-06-22T00:43:06;20.10;99.90
12130;DHT22;6128;59.340;18.040;2023-06-22T00:45:36;20.20;99.90
12130;DHT22;6128;59.340;18.040;2023-06-22T00:48:03;20.10;99.90
12130;DHT22;6128;59.340;18.040;2023-06-22T00:50:32;20.10;99.90
12130;DHT22;6128;59.340;18.040;2023-06-22T00:53:03;20.10;99.90
12130;DHT22;6128;59.340;18.040;2023-06-22T00:55:36;20.10;99.90
12130;DHT22;6128;59.340;18.040;2023-06-22T00:58:04;20.10;99.90
12130;DHT22;6128;59.340;18.040;2023-06-22T01:00:36;20.10;99.90
12130;DHT22;6128;59.340;18.040;2023-06-22T01:03:04;20.20;99.90
12130;DHT22;6128;59.340;18.040;2023-06-22T01:05:35;20.10;99.90
12130;DHT22;6128;59.340;18.040;2023-06-22T01:08:12;20.20;99.90
12130;DHT22;6128;59.340;18.040;2023-06-22T01:10:50;20.20;99.90
12130;DHT22;6128;59.340;18.040;2023-06-22T01:13:24;20.20;99.90
12130;DHT22;6128;59.340;18.040;2023-06-22T01:15:57;20.20;99.90
12130;DHT22;6128;59.340;18.040;2023-06-22T01:18:29;20.20;99.90
12130;DHT22;6128;59.340;18.040;2023-06-22T01:20:57;20.10;99.90
12130;DHT22;6128;59.340;18.040;2023-06-22T01:23:33;20.10;99.90
12130;DHT22;6128;59.340;18.040;2023-06-22T01:26:12;20.10;99.90
12130;DHT22;6128;59.340;18.040;2023-06-22T01:28:49;20.10;99.90
12130;DHT22;6128;59.340;18.040;2023-06-22T01:31:18;20.10;99.90
12130;DHT22;6128;59.340;18.040;2023-06-22T01:33:54;20.10;99.90
12130;DHT22;6128;59.340;18.040;2023-06-22T01:36:23;20.00;99.90
12130;DHT22;6128;59.340;18.040;2023-06-22T01:38:54;20.00;99.90
12130;DHT22;6128;59.340;18.040;2023-06-22T01:41:24;20.00;99.90
12130;DHT22;6128;59.340;18.040;2023-06-22T01:43:54;20.00;99.90
12130;DHT22;6128;59.340;18.040;2023-06-22T01:46:22;20.00;99.90
12130;DHT22;6128;59.340;18.040;2023-06-22T01:48:50;20.00;99.90
12130;DHT22;6128;59.340;18.040;2023-06-22T01:51:17;19.90;99.90
12130;DHT22;6128;59.340;18.040;2023-06-22T01:53:44;19.90;99.90
12130;DHT22;6128;59.340;18.040;2023-06-22T01:56:14;19.90;99.90
12130;DHT22;6128;59.340;18.040;2023-06-22T01:58:48;19.90;99.90
12130;DHT22;6128;59.340;18.040;2023-06-22T02:01:27;19.90;99.90
12130;DHT22;6128;59.340;18.040;2023-06-22T02:04:02;19.90;99.90
12130;DHT22;6128;59.340;18.040;2023-06-22T02:06:45;20.00;99.90
12130;DHT22;6128;59.340;18.040;2023-06-22T02:09:17;20.00;99.90
12130;DHT22;6128;59.340;18.040;2023-06-22T02:11:47;19.90;99.90
12130;DHT22;6128;59.340;18.040;2023-06-22T02:14:18;20.00;99.90
12130;DHT22;6128;59.340;18.040;2023-06-22T02:16:47;20.00;99.90
12130;DHT22;6128;59.340;18.040;2023-06-22T02:19:17;20.00;99.90
12130;DHT22;6128;59.340;18.040;2023-06-22T02:21:49;20.00;99.90
12130;DHT22;6128;59.340;18.040;2023-06-22T02:24:16;19.90;99.90
12130;DHT22;6128;59.340;18.040;2023-06-22T02:26:43;19.90;99.90
12130;DHT22;6128;59.340;18.040;2023-06-22T02:29:11;20.00;99.90
12130;DHT22;6128;59.340;18.040;2023-06-22T02:31:38;20.00;99.90
12130;DHT22;6128;59.340;18.040;2023-06-22T02:34:07;20.00;99.90
12130;DHT22;6128;59.340;18.040;2023-06-22T02:36:34;20.00;99.90
12130;DHT22;6128;59.340;18.040;2023-06-22T02:39:01;20.00;99.90
12130;DHT22;6128;59.340;18.040;2023-06-22T02:41:29;20.00;99.90
12130;DHT22;6128;59.340;18.040;2023-06-22T02:43:56;20.00;99.90
12130;DHT22;6128;59.340;18.040;2023-06-22T02:46:23;20.00;99.90
12130;DHT22;6128;59.340;18.040;2023-06-22T02:48:50;20.00;99.90
12130;DHT22;6128;59.340;18.040;2023-06-22T02:51:19;20.00;99.90
12130;DHT22;6128;59.340;18.040;2023-06-22T02:53:46;20.00;99.90
12130;DHT22;6128;59.340;18.040;2023-06-22T02:56:13;20.00;99.90
12130;DHT22;6128;59.340;18.040;2023-06-22T02:58:41;20.00;99.90
12130;DHT22;6128;59.340;18.040;2023-06-22T03:01:09;20.00;99.90
12130;DHT22;6128;59.340;18.040;2023-06-22T03:03:38;19.90;99.90
12130;DHT22;6128;59.340;18.040;2023-06-22T03:06:05;19.90;99.90
12130;DHT22;6128;59.340;18.040;2023-06-22T03:08:41;19.90;99.90
12130;DHT22;6128;59.340;18.040;2023-06-22T03:11:08;19.90;99.90
12130;DHT22;6128;59.340;18.040;2023-06-22T03:13:35;19.90;99.90
12130;DHT22;6128;59.340;18.040;2023-06-22T03:16:02;20.00;99.90
12130;DHT22;6128;59.340;18.040;2023-06-22T03:18:30;20.00;99.90
12130;DHT22;6128;59.340;18.040;2023-06-22T03:20:57;20.00;99.90
12130;DHT22;6128;59.340;18.040;2023-06-22T03:23:25;20.00;99.90
12130;DHT22;6128;59.340;18.040;2023-06-22T03:25:53;20.00;99.90
12130;DHT22;6128;59.340;18.040;2023-06-22T03:28:21;20.10;99.90
12130;DHT22;6128;59.340;18.040;2023-06-22T03:30:48;20.20;99.90
12130;DHT22;6128;59.340;18.040;2023-06-22T03:33:16;20.20;99.90
12130;DHT22;6128;59.340;18.040;2023-06-22T03:35:43;20.20;99.90
12130;DHT22;6128;59.340;18.040;2023-06-22T03:38:16;20.20;99.90
12130;DHT22;6128;59.340;18.040;2023-06-22T03:40:45;20.20;99.90
12130;DHT22;6128;59.340;18.040;2023-06-22T03:43:14;20.30;99.90
12130;DHT22;6128;59.340;18.040;2023-06-22T03:45:41;20.30;99.90
12130;DHT22;6128;59.340;18.040;2023-06-22T03:48:11;20.30;99.90
12130;DHT22;6128;59.340;18.040;2023-06-22T03:50:38;20.40;99.90
12130;DHT22;6128;59.340;18.040;2023-06-22T03:53:05;20.40;99.90
12130;DHT22;6128;59.340;18.040;2023-06-22T03:55:34;20.50;99.90
12130;DHT22;6128;59.340;18.040;2023-06-22T03:58:02;20.60;99.90
12130;DHT22;6128;59.340;18.040;2023-06-22T04:00:32;20.60;99.90
12130;DHT22;6128;59.340;18.040;2023-06-22T04:03:02;20.60;99.90
12130;DHT22;6128;59.340;18.040;2023-06-22T04:05:29;20.60;99.90
12130;DHT22;6128;59.340;18.040;2023-06-22T04:07:58;20.70;99.90
12130;DHT22;6128;59.340;18.040;2023-06-22T04:10:26;20.70;99.90
12130;DHT22;6128;59.340;18.040;2023-06-22T04:12:53;20.80;99.90
12130;DHT22;6128;59.340;18.040;2023-06-22T04:15:22;20.90;99.90
12130;DHT22;6128;59.340;18.040;2023-06-22T04:17:54;21.00;99.90
12130;DHT22;6128;59.340;18.040;2023-06-22T04:20:25;21.10;99.90
12130;DHT22;6128;59.340;18.040;2023-06-22T04:22:53;21.20;99.90
12130;DHT22;6128;59.340;18.040;2023-06-22T04:25:21;21.20;99.90
12130;DHT22;6128;59.340;18.040;2023-06-22T04:27:49;21.30;99.90
12130;DHT22;6128;59.340;18.040;2023-06-22T04:30:16;21.30;99.90
12130;DHT22;6128;59.340;18.040;2023-06-22T04:32:44;21.30;99.90
12130;DHT22;6128;59.340;18.040;2023-06-22T04:35:13;21.20;99.90
12130;DHT22;6128;59.340;18.040;2023-06-22T04:37:40;21.20;99.90
12130;DHT22;6128;59.340;18.040;2023-06-22T04:40:08;21.10;99.90
12130;DHT22;6128;59.340;18.040;2023-06-22T04:42:37;21.10;99.90
12130;DHT22;6128;59.340;18.040;2023-06-22T04:45:08;21.10;99.90
12130;DHT22;6128;59.340;18.040;2023-06-22T04:47:37;21.00;99.90
12130;DHT22;6128;59.340;18.040;2023-06-22T04:50:26;21.10;99.90
12130;DHT22;6128;59.340;18.040;2023-06-22T04:52:53;21.20;99.90
12130;DHT22;6128;59.340;18.040;2023-06-22T04:55:21;21.20;99.90
12130;DHT22;6128;59.340;18.040;2023-06-22T04:57:48;21.20;99.90
12130;DHT22;6128;59.340;18.040;2023-06-22T05:00:17;21.30;99.90
12130;DHT22;6128;59.340;18.040;2023-06-22T05:02:45;21.40;99.90
12130;DHT22;6128;59.340;18.040;2023-06-22T05:05:13;21.40;99.90
12130;DHT22;6128;59.340;18.040;2023-06-22T05:07:44;21.50;99.90
12130;DHT22;6128;59.340;18.040;2023-06-22T05:10:14;21.60;99.90
12130;DHT22;6128;59.340;18.040;2023-06-22T05:12:41;21.70;99.90
12130;DHT22;6128;59.340;18.040;2023-06-22T05:15:11;21.60;99.90
12130;DHT22;6128;59.340;18.040;2023-06-22T05:17:39;21.60;99.90
12130;DHT22;6128;59.340;18.040;2023-06-22T05:20:09;21.70;99.90
12130;DHT22;6128;59.340;18.040;2023-06-22T05:22:37;21.70;99.90
12130;DHT22;6128;59.340;18.040;2023-06-22T05:25:09;21.80;99.90
12130;DHT22;6128;59.340;18.040;2023-06-22T05:27:39;21.90;99.90
12130;DHT22;6128;59.340;18.040;2023-06-22T05:30:10;22.00;99.90
12130;DHT22;6128;59.340;18.040;2023-06-22T05:32:37;22.10;99.90
12130;DHT22;6128;59.340;18.040;2023-06-22T05:35:05;22.10;99.90
12130;DHT22;6128;59.340;18.040;2023-06-22T05:37:32;22.00;99.90
12130;DHT22;6128;59.340;18.040;2023-06-22T05:39:59;21.90;99.90
12130;DHT22;6128;59.340;18.040;2023-06-22T05:42:28;21.90;99.90
12130;DHT22;6128;59.340;18.040;2023-06-22T05:44:55;21.90;99.90
12130;DHT22;6128;59.340;18.040;2023-06-22T05:47:24;21.80;99.90
12130;DHT22;6128;59.340;18.040;2023-06-22T05:49:51;21.80;99.90
12130;DHT22;6128;59.340;18.040;2023-06-22T05:52:18;21.90;99.90
12130;DHT22;6128;59.340;18.040;2023-06-22T05:54:46;21.80;99.90
12130;DHT22;6128;59.340;18.040;2023-06-22T05:57:13;21.90;99.90
12130;DHT22;6128;59.340;18.040;2023-06-22T05:59:42;21.90;99.90
12130;DHT22;6128;59.340;18.040;2023-06-22T06:02:09;21.90;99.90
12130;DHT22;6128;59.340;18.040;2023-06-22T06:04:36;21.90;99.90
12130;DHT22;6128;59.340;18.040;2023-06-22T06:07:04;21.80;99.90
12130;DHT22;6128;59.340;18.040;2023-06-22T06:09:31;21.80;99.90
12130;DHT22;6128;59.340;18.040;2023-06-22T06:11:59;21.70;99.90
12130;DHT22;6128;59.340;18.040;2023-06-22T06:14:28;21.50;99.90
12130;DHT22;6128;59.340;18.040;2023-06-22T06:16:57;21.50;99.90
12130;DHT22;6128;59.340;18.040;2023-06-22T06:19:24;21.40;99.90
12130;DHT22;6128;59.340;18.040;2023-06-22T06:21:51;21.40;99.90
12130;DHT22;6128;59.340;18.040;2023-06-22T06:24:18;21.40;99.90
12130;DHT22;6128;59.340;18.040;2023-06-22T06:26:46;21.40;99.90
12130;DHT22;6128;59.340;18.040;2023-06-22T06:29:14;21.30;99.90
12130;DHT22;6128;59.340;18.040;2023-06-22T06:31:42;21.30;99.90
12130;DHT22;6128;59.340;18.040;2023-06-22T06:34:11;21.20;99.90
12130;DHT22;6128;59.340;18.040;2023-06-22T06:36:38;21.00;99.90
12130;DHT22;6128;59.340;18.040;2023-06-22T06:39:05;20.90;99.90
12130;DHT22;6128;59.340;18.040;2023-06-22T06:41:32;20.90;99.90
12130;DHT22;6128;59.340;18.040;2023-06-22T06:43:59;20.90;99.90
12130;DHT22;6128;59.340;18.040;2023-06-22T06:46:26;21.10;99.90
12130;DHT22;6128;59.340;18.040;2023-06-22T06:48:54;21.10;99.90
12130;DHT22;6128;59.340;18.040;2023-06-22T06:51:22;21.40;99.90
12130;DHT22;6128;59.340;18.040;2023-06-22T06:53:49;22.00;99.90
12130;DHT22;6128;59.340;18.040;2023-06-22T06:56:17;22.20;99.90
12130;DHT22;6128;59.340;18.040;2023-06-22T06:58:44;22.60;99.90
12130;DHT22;6128;59.340;18.040;2023-06-22T07:01:11;22.90;99.90
12130;DHT22;6128;59.340;18.040;2023-06-22T07:03:38;23.20;99.90
12130;DHT22;6128;59.340;18.040;2023-06-22T07:06:05;23.10;99.90
12130;DHT22;6128;59.340;18.040;2023-06-22T07:08:34;23.20;99.90
12130;DHT22;6128;59.340;18.040;2023-06-22T07:11:02;23.50;99.90
12130;DHT22;6128;59.340;18.040;2023-06-22T07:13:29;24.00;99.90
12130;DHT22;6128;59.340;18.040;2023-06-22T07:15:57;24.40;99.90
12130;DHT22;6128;59.340;18.040;2023-06-22T07:18:24;24.60;99.90
12130;DHT22;6128;59.340;18.040;2023-06-22T07:20:52;24.40;99.90
12130;DHT22;6128;59.340;18.040;2023-06-22T07:23:22;24.10;99.90
12130;DHT22;6128;59.340;18.040;2023-06-22T07:25:51;23.90;99.90
12130;DHT22;6128;59.340;18.040;2023-06-22T07:28:18;23.60;99.90
12130;DHT22;6128;59.340;18.040;2023-06-22T07:30:46;23.30;99.90
12130;DHT22;6128;59.340;18.040;2023-06-22T07:33:13;23.00;99.90
12130;DHT22;6128;59.340;18.040;2023-06-22T07:35:40;22.80;99.90
12130;DHT22;6128;59.340;18.040;2023-06-22T07:38:07;22.60;99.90
12130;DHT22;6128;59.340;18.040;2023-06-22T07:40:35;22.50;99.90
12130;DHT22;6128;59.340;18.040;2023-06-22T07:43:03;22.40;99.90
12130;DHT22;6128;59.340;18.040;2023-06-22T07:45:31;22.30;99.90
12130;DHT22;6128;59.340;18.040;2023-06-22T07:48:02;22.20;99.90
12130;DHT22;6128;59.340;18.040;2023-06-22T07:50:29;22.10;99.90
12130;DHT22;6128;59.340;18.040;2023-06-22T07:52:56;22.00;99.90
12130;DHT22;6128;59.340;18.040;2023-06-22T07:55:24;21.90;99.90
12130;DHT22;6128;59.340;18.040;2023-06-22T07:57:51;21.80;99.90
12130;DHT22;6128;59.340;18.040;2023-06-22T08:00:20;21.70;99.90
12130;DHT22;6128;59.340;18.040;2023-06-22T08:02:47;21.70;99.90
12130;DHT22;6128;59.340;18.040;2023-06-22T08:05:15;21.80;99.90
12130;DHT22;6128;59.340;18.040;2023-06-22T08:07:43;21.90;99.90
12130;DHT22;6128;59.340;18.040;2023-06-22T08:10:11;22.10;99.90
12130;DHT22;6128;59.340;18.040;2023-06-22T08:12:38;22.40;99.90
12130;DHT22;6128;59.340;18.040;2023-06-22T08:15:07;22.80;99.90
12130;DHT22;6128;59.340;18.040;2023-06-22T08:17:36;23.30;99.90
12130;DHT22;6128;59.340;18.040;2023-06-22T08:20:07;23.80;99.90
12130;DHT22;6128;59.340;18.040;2023-06-22T08:22:37;23.70;99.90
12130;DHT22;6128;59.340;18.040;2023-06-22T08:25:05;23.60;99.90
12130;DHT22;6128;59.340;18.040;2023-06-22T08:27:33;23.70;99.90
12130;DHT22;6128;59.340;18.040;2023-06-22T08:30:00;23.80;99.90
12130;DHT22;6128;59.340;18.040;2023-06-22T08:32:27;23.90;99.90
12130;DHT22;6128;59.340;18.040;2023-06-22T08:34:57;23.90;99.90
12130;DHT22;6128;59.340;18.040;2023-06-22T08:37:26;23.80;99.90
12130;DHT22;6128;59.340;18.040;2023-06-22T08:40:02;23.70;99.90
12130;DHT22;6128;59.340;18.040;2023-06-22T08:42:31;23.50;99.90
12130;DHT22;6128;59.340;18.040;2023-06-22T08:44:58;23.40;99.90
12130;DHT22;6128;59.340;18.040;2023-06-22T08:47:26;23.50;99.90
12130;DHT22;6128;59.340;18.040;2023-06-22T08:49:55;23.50;99.90
12130;DHT22;6128;59.340;18.040;2023-06-22T08:52:23;23.60;99.90
12130;DHT22;6128;59.340;18.040;2023-06-22T08:54:50;23.70;99.90
12130;DHT22;6128;59.340;18.040;2023-06-22T08:57:18;24.00;99.90
12130;DHT22;6128;59.340;18.040;2023-06-22T08:59:45;24.20;99.90
12130;DHT22;6128;59.340;18.040;2023-06-22T09:02:12;24.10;99.90
12130;DHT22;6128;59.340;18.040;2023-06-22T09:04:39;24.10;99.90
12130;DHT22;6128;59.340;18.040;2023-06-22T09:07:08;24.20;99.90
12130;DHT22;6128;59.340;18.040;2023-06-22T09:09:35;24.50;99.90
12130;DHT22;6128;59.340;18.040;2023-06-22T09:12:03;24.60;99.90
12130;DHT22;6128;59.340;18.040;2023-06-22T09:14:30;24.70;99.90
12130;DHT22;6128;59.340;18.040;2023-06-22T09:16:57;25.10;99.90
12130;DHT22;6128;59.340;18.040;2023-06-22T09:19:24;25.00;99.90
12130;DHT22;6128;59.340;18.040;2023-06-22T09:21:52;25.00;99.90
12130;DHT22;6128;59.340;18.040;2023-06-22T09:24:20;25.20;99.90
12130;DHT22;6128;59.340;18.040;2023-06-22T09:26:48;25.50;99.90
12130;DHT22;6128;59.340;18.040;2023-06-22T09:29:16;25.40;99.90
12130;DHT22;6128;59.340;18.040;2023-06-22T09:31:43;25.40;99.90
12130;DHT22;6128;59.340;18.040;2023-06-22T09:34:11;25.30;99.90
12130;DHT22;6128;59.340;18.040;2023-06-22T09:36:38;25.00;99.90
12130;DHT22;6128;59.340;18.040;2023-06-22T09:39:06;24.90;99.90
12130;DHT22;6128;59.340;18.040;2023-06-22T09:41:35;24.80;99.90
12130;DHT22;6128;59.340;18.040;2023-06-22T09:44:02;24.70;99.90
12130;DHT22;6128;59.340;18.040;2023-06-22T09:46:29;24.70;99.90
12130;DHT22;6128;59.340;18.040;2023-06-22T09:48:56;24.80;99.90
12130;DHT22;6128;59.340;18.040;2023-06-22T09:51:23;24.60;99.90
12130;DHT22;6128;59.340;18.040;2023-06-22T09:53:51;24.50;99.90
12130;DHT22;6128;59.340;18.040;2023-06-22T09:56:19;24.40;99.90
12130;DHT22;6128;59.340;18.040;2023-06-22T09:58:48;24.40;99.90
12130;DHT22;6128;59.340;18.040;2023-06-22T10:01:18;24.40;99.90
12130;DHT22;6128;59.340;18.040;2023-06-22T10:03:48;24.50;99.90
12130;DHT22;6128;59.340;18.040;2023-06-22T10:06:15;24.50;99.90
12130;DHT22;6128;59.340;18.040;2023-06-22T10:08:42;24.60;99.90
12130;DHT22;6128;59.340;18.040;2023-06-22T10:11:10;24.60;99.90
12130;DHT22;6128;59.340;18.040;2023-06-22T10:13:37;24.60;99.90
12130;DHT22;6128;59.340;18.040;2023-06-22T10:16:06;24.60;99.90
12130;DHT22;6128;59.340;18.040;2023-06-22T10:18:33;24.50;99.90
12130;DHT22;6128;59.340;18.040;2023-06-22T10:21:00;24.40;99.90
12130;DHT22;6128;59.340;18.040;2023-06-22T10:23:28;24.30;99.90
12130;DHT22;6128;59.340;18.040;2023-06-22T10:25:58;24.30;99.90
12130;DHT22;6128;59.340;18.040;2023-06-22T10:28:25;24.40;99.90
12130;DHT22;6128;59.340;18.040;2023-06-22T10:30:52;24.40;99.90
12130;DHT22;6128;59.340;18.040;2023-06-22T10:33:26;24.50;99.90
12130;DHT22;6128;59.340;18.040;2023-06-22T10:35:53;24.50;99.90
12130;DHT22;6128;59.340;18.040;2023-06-22T10:38:20;24.50;99.90
12130;DHT22;6128;59.340;18.040;2023-06-22T10:40:47;24.60;99.90
12130;DHT22;6128;59.340;18.040;2023-06-22T10:43:15;24.70;99.90
12130;DHT22;6128;59.340;18.040;2023-06-22T10:45:42;24.80;99.90
12130;DHT22;6128;59.340;18.040;2023-06-22T10:48:09;24.90;99.90
12130;DHT22;6128;59.340;18.040;2023-06-22T10:50:38;24.90;99.90
12130;DHT22;6128;59.340;18.040;2023-06-22T10:53:05;24.90;99.90
12130;DHT22;6128;59.340;18.040;2023-06-22T10:55:35;25.00;99.90
12130;DHT22;6128;59.340;18.040;2023-06-22T10:58:03;25.00;99.90
12130;DHT22;6128;59.340;18.040;2023-06-22T11:00:30;25.00;99.90
12130;DHT22;6128;59.340;18.040;2023-06-22T11:02:57;25.10;99.90
12130;DHT22;6128;59.340;18.040;2023-06-22T11:05:24;25.10;99.90
12130;DHT22;6128;59.340;18.040;2023-06-22T11:07:53;25.20;99.90
12130;DHT22;6128;59.340;18.040;2023-06-22T11:10:20;25.30;99.90
12130;DHT22;6128;59.340;18.040;2023-06-22T11:12:47;25.30;99.90
12130;DHT22;6128;59.340;18.040;2023-06-22T11:15:14;25.40;99.90
12130;DHT22;6128;59.340;18.040;2023-06-22T11:17:41;25.30;99.90
12130;DHT22;6128;59.340;18.040;2023-06-22T11:20:09;25.20;99.90
12130;DHT22;6128;59.340;18.040;2023-06-22T11:22:37;25.20;99.90
12130;DHT22;6128;59.340;18.040;2023-06-22T11:25:07;25.20;99.90
12130;DHT22;6128;59.340;18.040;2023-06-22T11:27:35;25.30;99.90
12130;DHT22;6128;59.340;18.040;2023-06-22T11:30:03;25.30;99.90
12130;DHT22;6128;59.340;18.040;2023-06-22T11:32:31;25.30;99.90
12130;DHT22;6128;59.340;18.040;2023-06-22T11:34:58;25.40;99.90
12130;DHT22;6128;59.340;18.040;2023-06-22T11:37:25;25.50;99.90
12130;DHT22;6128;59.340;18.040;2023-06-22T11:39:52;25.60;99.90
12130;DHT22;6128;59.340;18.040;2023-06-22T11:42:21;25.60;99.90
12130;DHT22;6128;59.340;18.040;2023-06-22T11:44:51;25.60;99.90
12130;DHT22;6128;59.340;18.040;2023-06-22T11:47:18;25.70;99.90
12130;DHT22;6128;59.340;18.040;2023-06-22T11:49:46;25.80;99.90
12130;DHT22;6128;59.340;18.040;2023-06-22T11:52:13;25.80;99.90
12130;DHT22;6128;59.340;18.040;2023-06-22T11:54:40;25.80;99.90
12130;DHT22;6128;59.340;18.040;2023-06-22T11:57:11;25.90;99.90
12130;DHT22;6128;59.340;18.040;2023-06-22T11:59:40;25.90;99.90
12130;DHT22;6128;59.340;18.040;2023-06-22T12:02:07;26.10;99.90
12130;DHT22;6128;59.340;18.040;2023-06-22T12:04:35;26.10;99.90
12130;DHT22;6128;59.340;18.040;2023-06-22T12:07:02;26.10;99.90
12130;DHT22;6128;59.340;18.040;2023-06-22T12:09:30;26.20;99.90
12130;DHT22;6128;59.340;18.040;2023-06-22T12:11:57;26.30;99.90
12130;DHT22;6128;59.340;18.040;2023-06-22T12:14:24;26.20;99.90
12130;DHT22;6128;59.340;18.040;2023-06-22T12:16:52;26.20;99.90
12130;DHT22;6128;59.340;18.040;2023-06-22T12:19:19;26.10;99.90
12130;DHT22;6128;59.340;18.040;2023-06-22T12:21:46;26.20;99.90
12130;DHT22;6128;59.340;18.040;2023-06-22T12:24:14;26.20;99.90
12130;DHT22;6128;59.340;18.040;2023-06-22T12:26:41;26.30;99.90
12130;DHT22;6128;59.340;18.040;2023-06-22T12:29:08;26.30;99.90
12130;DHT22;6128;59.340;18.040;2023-06-22T12:31:36;26.30;99.90
12130;DHT22;6128;59.340;18.040;2023-06-22T12:34:05;26.30;99.90
12130;DHT22;6128;59.340;18.040;2023-06-22T12:36:33;26.30;99.90
12130;DHT22;6128;59.340;18.040;2023-06-22T12:39:00;26.20;99.90
12130;DHT22;6128;59.340;18.040;2023-06-22T12:41:27;26.20;99.90
12130;DHT22;6128;59.340;18.040;2023-06-22T12:43:54;26.20;99.90
12130;DHT22;6128;59.340;18.040;2023-06-22T12:46:21;26.30;99.90
12130;DHT22;6128;59.340;18.040;2023-06-22T12:48:51;26.30;99.90
12130;DHT22;6128;59.340;18.040;2023-06-22T12:51:23;26.40;99.90
12130;DHT22;6128;59.340;18.040;2023-06-22T12:53:50;26.40;99.90
12130;DHT22;6128;59.340;18.040;2023-06-22T12:56:17;26.50;99.90
12130;DHT22;6128;59.340;18.040;2023-06-22T12:58:44;26.60;99.90
12130;DHT22;6128;59.340;18.040;2023-06-22T13:01:11;26.60;99.90
12130;DHT22;6128;59.340;18.040;2023-06-22T13:03:39;26.70;99.90
12130;DHT22;6128;59.340;18.040;2023-06-22T13:06:06;26.60;99.90
12130;DHT22;6128;59.340;18.040;2023-06-22T13:08:34;26.70;99.90
12130;DHT22;6128;59.340;18.040;2023-06-22T13:11:02;26.70;99.80
12130;DHT22;6128;59.340;18.040;2023-06-22T13:13:29;26.70;99.80
12130;DHT22;6128;59.340;18.040;2023-06-22T13:15:56;26.70;99.80
12130;DHT22;6128;59.340;18.040;2023-06-22T13:18:23;26.70;99.80
12130;DHT22;6128;59.340;18.040;2023-06-22T13:20:50;26.70;99.80
12130;DHT22;6128;59.340;18.040;2023-06-22T13:23:20;26.70;99.80
12130;DHT22;6128;59.340;18.040;2023-06-22T13:25:48;26.80;99.90
12130;DHT22;6128;59.340;18.040;2023-06-22T13:28:16;26.90;99.80
12130;DHT22;6128;59.340;18.040;2023-06-22T13:30:43;26.90;99.80
12130;DHT22;6128;59.340;18.040;2023-06-22T13:33:12;27.00;99.80
12130;DHT22;6128;59.340;18.040;2023-06-22T13:35:40;27.10;99.80
12130;DHT22;6128;59.340;18.040;2023-06-22T13:38:08;27.10;99.80
12130;DHT22;6128;59.340;18.040;2023-06-22T13:40:35;27.10;99.80
12130;DHT22;6128;59.340;18.040;2023-06-22T13:43:06;27.20;99.90
12130;DHT22;6128;59.340;18.040;2023-06-22T13:45:33;27.10;99.80
12130;DHT22;6128;59.340;18.040;2023-06-22T13:48:00;27.20;99.70
12130;DHT22;6128;59.340;18.040;2023-06-22T13:50:28;27.20;99.70
12130;DHT22;6128;59.340;18.040;2023-06-22T13:52:55;27.40;99.60
12130;DHT22;6128;59.340;18.040;2023-06-22T13:55:23;27.50;99.50
12130;DHT22;6128;59.340;18.040;2023-06-22T13:57:50;27.60;99.40
12130;DHT22;6128;59.340;18.040;2023-06-22T14:00:19;27.70;99.30
12130;DHT22;6128;59.340;18.040;2023-06-22T14:02:46;27.70;99.20
12130;DHT22;6128;59.340;18.040;2023-06-22T14:05:13;27.70;99.10
12130;DHT22;6128;59.340;18.040;2023-06-22T14:07:40;27.70;99.00
12130;DHT22;6128;59.340;18.040;2023-06-22T14:10:08;27.60;98.90
12130;DHT22;6128;59.340;18.040;2023-06-22T14:12:36;27.50;98.80
12130;DHT22;6128;59.340;18.040;2023-06-22T14:15:04;27.60;98.70
12130;DHT22;6128;59.340;18.040;2023-06-22T14:17:33;27.50;98.60
12130;DHT22;6128;59.340;18.040;2023-06-22T14:20:00;27.50;98.50
12130;DHT22;6128;59.340;18.040;2023-06-22T14:22:27;27.50;98.40
12130;DHT22;6128;59.340;18.040;2023-06-22T14:24:55;27.30;98.30
12130;DHT22;6128;59.340;18.040;2023-06-22T14:27:23;27.40;98.20
12130;DHT22;6128;59.340;18.040;2023-06-22T14:29:50;27.50;98.10
12130;DHT22;6128;59.340;18.040;2023-06-22T14:32:17;27.50;98.10
12130;DHT22;6128;59.340;18.040;2023-06-22T14:34:46;27.60;98.00
12130;DHT22;6128;59.340;18.040;2023-06-22T14:37:15;27.60;97.90
12130;DHT22;6128;59.340;18.040;2023-06-22T14:39:43;27.50;97.80
12130;DHT22;6128;59.340;18.040;2023-06-22T14:42:10;27.40;97.80
12130;DHT22;6128;59.340;18.040;2023-06-22T14:44:37;27.40;97.70
12130;DHT22;6128;59.340;18.040;2023-06-22T14:47:04;27.40;97.60
12130;DHT22;6128;59.340;18.040;2023-06-22T14:49:32;27.40;97.50
12130;DHT22;6128;59.340;18.040;2023-06-22T14:52:01;27.50;97.50
12130;DHT22;6128;59.340;18.040;2023-06-22T14:54:28;27.40;97.40
12130;DHT22;6128;59.340;18.040;2023-06-22T14:56:55;27.40;97.30
12130;DHT22;6128;59.340;18.040;2023-06-22T14:59:22;27.40;97.10
12130;DHT22;6128;59.340;18.040;2023-06-22T15:01:50;27.30;97.10
12130;DHT22;6128;59.340;18.040;2023-06-22T15:04:17;27.20;97.00
12130;DHT22;6128;59.340;18.040;2023-06-22T15:06:44;27.10;96.80
12130;DHT22;6128;59.340;18.040;2023-06-22T15:09:13;27.00;96.80
12130;DHT22;6128;59.340;18.040;2023-06-22T15:11:40;27.00;96.70
12130;DHT22;6128;59.340;18.040;2023-06-22T15:14:07;27.00;96.60
12130;DHT22;6128;59.340;18.040;2023-06-22T15:16:34;27.10;96.60
12130;DHT22;6128;59.340;18.040;2023-06-22T15:19:01;27.10;96.60
12130;DHT22;6128;59.340;18.040;2023-06-22T15:21:29;27.10;96.50
12130;DHT22;6128;59.340;18.040;2023-06-22T15:23:56;27.20;96.50
12130;DHT22;6128;59.340;18.040;2023-06-22T15:26:25;27.20;96.40
12130;DHT22;6128;59.340;18.040;2023-06-22T15:28:52;27.30;96.40
12130;DHT22;6128;59.340;18.040;2023-06-22T15:31:20;27.20;96.30
12130;DHT22;6128;59.340;18.040;2023-06-22T15:33:48;27.10;96.20
12130;DHT22;6128;59.340;18.040;2023-06-22T15:36:15;27.00;96.20